createdAt,value
2022-11-29T00:00:24.455Z,11.40
2022-11-29T00:02:56.062Z,13.50
2022-11-29T00:05:26.342Z,12.00
2022-11-29T00:07:56.540Z,8.90
2022-11-29T00:10:29.024Z,8.97
2022-11-29T00:13:01.672Z,8.47
2022-11-29T00:15:31.801Z,10.03
2022-11-29T00:18:01.863Z,12.97
2022-11-29T00:20:31.943Z,11.30
2022-11-29T00:23:02.711Z,10.97
2022-11-29T00:25:32.790Z,10.07
2022-11-29T00:28:07.735Z,10.30
2022-11-29T00:30:37.858Z,10.43
2022-11-29T00:33:18.388Z,11.30
2022-11-29T00:35:51.548Z,12.43
2022-11-29T00:38:24.699Z,14.07
2022-11-29T00:40:57.965Z,12.53
2022-11-29T00:43:30.644Z,14.57
2022-11-29T00:46:00.992Z,11.83
2022-11-29T00:48:34.935Z,9.77
2022-11-29T00:51:05.333Z,12.97
2022-11-29T00:53:38.299Z,10.53
2022-11-29T00:56:13.237Z,10.30
2022-11-29T00:58:46.041Z,11.87
2022-11-29T01:01:16.319Z,8.87
2022-11-29T01:03:46.478Z,9.43
2022-11-29T01:06:20.229Z,9.77
2022-11-29T01:08:52.805Z,6.87
2022-11-29T01:11:29.719Z,12.63
2022-11-29T01:14:06.715Z,9.27
2022-11-29T01:16:37.230Z,7.93
2022-11-29T01:19:07.606Z,9.40
2022-11-29T01:21:48.229Z,7.97
2022-11-29T01:24:18.385Z,8.33
2022-11-29T01:26:48.505Z,12.23
2022-11-29T01:29:21.135Z,11.33
2022-11-29T01:31:51.224Z,12.10
2022-11-29T01:34:21.379Z,7.00
2022-11-29T01:36:51.493Z,12.23
2022-11-29T01:39:21.579Z,10.97
2022-11-29T01:41:51.685Z,9.80
2022-11-29T01:45:09.317Z,11.10
2022-11-29T01:47:49.398Z,9.20
2022-11-29T01:50:20.603Z,15.93
2022-11-29T01:52:53.845Z,9.83
2022-11-29T01:55:24.727Z,9.57
2022-11-29T01:57:55.290Z,9.27
2022-11-29T02:00:25.787Z,9.23
2022-11-29T02:03:12.875Z,9.37
2022-11-29T02:05:50.401Z,10.13
2022-11-29T02:08:29.643Z,8.17
2022-11-29T02:11:28.092Z,7.27
2022-11-29T02:14:19.282Z,7.30
2022-11-29T02:17:03.068Z,8.50
2022-11-29T02:20:13.872Z,9.27
2022-11-29T02:22:56.140Z,9.03
2022-11-29T02:25:53.141Z,11.70
2022-11-29T02:28:52.439Z,8.63
2022-11-29T02:32:05.321Z,15.77
2022-11-29T02:35:05.305Z,13.20
2022-11-29T02:38:07.540Z,9.50
2022-11-29T02:41:13.616Z,10.63
2022-11-29T02:44:14.739Z,10.40
2022-11-29T02:47:13.963Z,10.80
2022-11-29T02:50:31.470Z,10.53
2022-11-29T02:53:20.579Z,7.70
2022-11-29T02:56:07.310Z,10.17
2022-11-29T02:58:48.673Z,10.03
2022-11-29T03:01:27.194Z,8.67
2022-11-29T03:04:10.297Z,13.20
2022-11-29T03:06:53.163Z,8.37
2022-11-29T03:09:39.984Z,10.40
2022-11-29T03:12:25.905Z,9.57
2022-11-29T03:15:12.854Z,9.13
2022-11-29T03:18:04.447Z,10.57
2022-11-29T03:20:56.334Z,8.73
2022-11-29T03:23:39.855Z,12.20
2022-11-29T03:26:21.574Z,9.80
2022-11-29T03:29:01.347Z,11.90
2022-11-29T03:31:38.711Z,7.90
2022-11-29T03:34:33.048Z,10.70
2022-11-29T03:37:17.493Z,10.33
2022-11-29T03:39:57.259Z,13.80
2022-11-29T03:42:40.327Z,12.27
2022-11-29T03:45:20.616Z,12.23
2022-11-29T03:48:05.056Z,13.93
2022-11-29T03:50:42.010Z,13.03
2022-11-29T03:53:24.982Z,14.17
2022-11-29T03:56:01.204Z,14.10
2022-11-29T03:58:51.708Z,12.40
2022-11-29T04:02:05.310Z,11.60
2022-11-29T04:05:18.453Z,13.43
2022-11-29T04:08:08.710Z,11.47
2022-11-29T04:11:18.773Z,21.03
2022-11-29T04:14:23.674Z,18.23
2022-11-29T04:17:36.706Z,12.33
2022-11-29T04:20:48.410Z,10.67
2022-11-29T04:23:58.548Z,12.80
2022-11-29T04:26:57.565Z,13.83
2022-11-29T04:30:19.073Z,13.37
2022-11-29T04:33:33.973Z,21.93
2022-11-29T04:36:51.665Z,16.10
2022-11-29T04:39:58.665Z,20.03
2022-11-29T04:42:56.682Z,15.60
2022-11-29T04:46:24.492Z,14.63
2022-11-29T04:49:25.661Z,13.80
2022-11-29T04:52:29.140Z,16.60
2022-11-29T04:55:21.653Z,21.83
2022-11-29T04:58:04.723Z,8.47
2022-11-29T05:00:50.838Z,16.07
2022-11-29T05:03:40.672Z,17.33
2022-11-29T05:06:26.243Z,13.23
2022-11-29T05:09:13.744Z,12.00
2022-11-29T05:12:01.480Z,13.00
2022-11-29T05:14:52.020Z,17.50
2022-11-29T05:17:41.037Z,11.43
2022-11-29T05:20:34.785Z,14.20
2022-11-29T05:23:35.216Z,11.87
2022-11-29T05:26:20.025Z,17.73
2022-11-29T05:29:04.540Z,15.70
2022-11-29T05:32:25.291Z,15.13
2022-11-29T05:35:54.218Z,22.70
2022-11-29T05:38:46.622Z,15.93
2022-11-29T05:41:40.407Z,17.50
2022-11-29T05:44:19.683Z,19.57
2022-11-29T05:47:01.873Z,21.37
2022-11-29T05:49:44.578Z,21.73
2022-11-29T05:52:50.662Z,18.80
2022-11-29T05:55:37.506Z,17.63
2022-11-29T05:58:29.919Z,19.77
2022-11-29T06:01:12.966Z,20.23
2022-11-29T06:03:54.716Z,20.13
2022-11-29T06:06:43.607Z,18.63
2022-11-29T06:09:28.870Z,15.13
2022-11-29T06:12:21.043Z,17.33
2022-11-29T06:15:36.376Z,19.33
2022-11-29T06:18:41.946Z,27.20
2022-11-29T06:21:33.361Z,26.50
2022-11-29T06:24:41.677Z,24.87
2022-11-29T06:27:44.864Z,33.00
2022-11-29T06:30:20.817Z,30.83
2022-11-29T06:33:12.056Z,29.17
2022-11-29T06:35:51.165Z,32.97
2022-11-29T06:38:28.696Z,37.10
2022-11-29T06:41:19.792Z,34.23
2022-11-29T06:43:51.429Z,35.10
2022-11-29T06:46:39.067Z,45.70
2022-11-29T06:49:27.961Z,51.10
2022-11-29T06:52:26.318Z,48.67
2022-11-29T06:55:20.634Z,44.30
2022-11-29T06:58:07.543Z,48.03
2022-11-29T07:00:52.970Z,54.10
2022-11-29T07:03:49.123Z,49.03
2022-11-29T07:06:27.676Z,51.17
2022-11-29T07:09:03.870Z,51.73
2022-11-29T07:11:38.024Z,49.90
2022-11-29T07:14:12.149Z,50.20
2022-11-29T07:16:57.463Z,49.73
2022-11-29T07:19:45.977Z,46.23
2022-11-29T07:22:55.190Z,46.27
2022-11-29T07:25:42.285Z,42.83
2022-11-29T07:28:33.390Z,52.63
2022-11-29T07:31:13.872Z,49.47
2022-11-29T07:34:01.588Z,48.20
2022-11-29T07:36:50.514Z,45.00
2022-11-29T07:39:40.579Z,46.60
2022-11-29T07:42:27.381Z,47.17
2022-11-29T07:45:15.505Z,45.87
2022-11-29T07:47:48.854Z,59.20
2022-11-29T07:50:20.096Z,48.50
2022-11-29T07:52:59.849Z,48.83
2022-11-29T07:55:30.408Z,50.47
2022-11-29T07:58:00.495Z,56.57
2022-11-29T08:00:30.550Z,62.83
2022-11-29T08:03:13.051Z,60.47
2022-11-29T08:05:48.743Z,58.20
2022-11-29T08:08:19.153Z,57.63
2022-11-29T08:10:49.935Z,50.63
2022-11-29T08:13:23.032Z,59.57
2022-11-29T08:15:53.192Z,52.33
2022-11-29T08:18:25.875Z,54.93
2022-11-29T08:20:55.907Z,54.23
2022-11-29T08:23:26.014Z,48.70
2022-11-29T08:26:02.909Z,51.53
2022-11-29T08:28:33.015Z,44.10
2022-11-29T08:31:09.267Z,56.00
2022-11-29T08:33:45.859Z,62.87
2022-11-29T08:36:21.008Z,69.47
2022-11-29T08:38:55.820Z,53.30
2022-11-29T08:41:29.528Z,62.47
2022-11-29T08:43:59.972Z,57.83
2022-11-29T08:46:50.124Z,62.93
2022-11-29T08:49:22.802Z,57.17
2022-11-29T08:52:15.121Z,51.57
2022-11-29T08:54:42.971Z,54.53
2022-11-29T08:57:38.987Z,52.10
2022-11-29T09:00:06.369Z,61.07
2022-11-29T09:02:37.214Z,68.63
2022-11-29T09:05:15.072Z,76.67
2022-11-29T09:07:49.480Z,70.57
2022-11-29T09:10:19.689Z,81.13
2022-11-29T09:12:51.346Z,104.30
2022-11-29T09:15:30.510Z,135.67
2022-11-29T09:18:05.227Z,118.33
2022-11-29T09:20:38.464Z,87.53
2022-11-29T09:23:08.705Z,90.30
2022-11-29T09:25:41.889Z,79.57
2022-11-29T09:28:18.252Z,68.57
2022-11-29T09:30:51.664Z,76.43
2022-11-29T09:33:21.823Z,57.30
2022-11-29T09:35:54.467Z,60.77
2022-11-29T09:38:24.601Z,61.80
2022-11-29T09:40:59.647Z,56.50
2022-11-29T09:43:48.560Z,49.93
2022-11-29T09:46:36.275Z,56.73
2022-11-29T09:49:52.080Z,46.77
2022-11-29T09:52:44.900Z,51.13
2022-11-29T09:55:40.181Z,54.97
2022-11-29T09:58:24.945Z,55.47
2022-11-29T10:01:05.293Z,72.40
2022-11-29T10:03:41.324Z,50.37
2022-11-29T10:06:26.015Z,47.53
2022-11-29T10:09:06.888Z,50.30
2022-11-29T10:11:44.312Z,42.00
2022-11-29T10:14:25.416Z,47.30
2022-11-29T10:17:06.328Z,49.10
2022-11-29T10:19:43.480Z,53.53
2022-11-29T10:22:28.411Z,50.67
2022-11-29T10:25:05.351Z,52.75
2022-11-29T10:27:42.522Z,49.72
2022-11-29T10:30:20.973Z,46.45
2022-11-29T10:32:59.400Z,46.13
2022-11-29T10:35:41.802Z,50.50
2022-11-29T10:38:32.829Z,48.07
2022-11-29T10:41:13.403Z,46.30
2022-11-29T10:43:55.847Z,45.60
2022-11-29T10:46:34.130Z,46.25
2022-11-29T10:49:08.028Z,47.40
2022-11-29T10:51:38.978Z,42.60
2022-11-29T10:54:43.087Z,41.95
2022-11-29T10:57:24.355Z,42.22
2022-11-29T11:00:04.999Z,43.30
2022-11-29T11:02:36.660Z,47.00
2022-11-29T11:05:18.728Z,41.35
2022-11-29T11:07:58.471Z,37.67
2022-11-29T11:10:32.593Z,39.88
2022-11-29T11:13:27.081Z,34.97
2022-11-29T11:16:09.870Z,35.63
2022-11-29T11:18:42.855Z,52.83
2022-11-29T11:21:15.809Z,36.30
2022-11-29T11:23:56.711Z,39.95
2022-11-29T11:26:28.670Z,31.75
2022-11-29T11:29:04.863Z,35.20
2022-11-29T11:31:45.833Z,34.50
2022-11-29T11:34:34.424Z,34.83
2022-11-29T11:37:32.514Z,38.17
2022-11-29T11:40:22.514Z,30.33
2022-11-29T11:42:55.183Z,30.13
2022-11-29T11:45:39.649Z,30.55
2022-11-29T11:48:19.204Z,32.17
2022-11-29T11:50:56.835Z,31.17
2022-11-29T11:53:34.033Z,27.73
2022-11-29T11:56:11.816Z,26.17
2022-11-29T11:58:53.163Z,24.70
2022-11-29T12:01:40.914Z,23.75
2022-11-29T12:04:20.155Z,22.73
2022-11-29T12:06:55.344Z,21.77
2022-11-29T12:09:44.679Z,26.75
2022-11-29T12:12:25.725Z,24.55
2022-11-29T12:15:03.864Z,28.98
2022-11-29T12:17:44.229Z,24.92
2022-11-29T12:20:31.303Z,24.42
2022-11-29T12:23:29.014Z,22.88
2022-11-29T12:26:07.598Z,33.75
2022-11-29T12:28:42.521Z,34.30
2022-11-29T12:31:40.991Z,33.10
2022-11-29T12:34:42.978Z,36.17
2022-11-29T12:37:21.899Z,39.30
2022-11-29T12:40:02.764Z,44.10
2022-11-29T12:42:51.235Z,43.25
2022-11-29T12:45:42.732Z,79.13
2022-11-29T12:48:33.455Z,41.85
2022-11-29T12:51:17.069Z,35.67
2022-11-29T12:54:17.512Z,32.45
2022-11-29T12:57:01.642Z,34.58
2022-11-29T12:59:54.102Z,31.88
2022-11-29T13:02:52.248Z,36.65
2022-11-29T13:05:43.381Z,42.10
2022-11-29T13:08:49.814Z,41.93
2022-11-29T13:11:30.463Z,45.40
2022-11-29T13:14:40.847Z,49.83
2022-11-29T13:17:07.309Z,49.42
2022-11-29T13:19:45.373Z,39.92
2022-11-29T13:22:34.193Z,46.23
2022-11-29T13:25:16.499Z,54.90
2022-11-29T13:27:58.399Z,50.30
2022-11-29T13:33:25.651Z,47.78
2022-11-29T13:36:14.972Z,60.45
2022-11-29T13:38:58.691Z,56.37
2022-11-29T13:41:40.526Z,46.90
2022-11-29T13:44:25.600Z,55.73
2022-11-29T13:47:09.651Z,54.77
2022-11-29T13:50:01.710Z,55.58
2022-11-29T13:52:43.406Z,62.08
2022-11-29T13:55:31.771Z,62.67
2022-11-29T13:58:18.433Z,54.80
2022-11-29T14:00:54.628Z,72.70
2022-11-29T14:03:38.898Z,69.80
2022-11-29T14:06:18.438Z,83.20
2022-11-29T14:09:26.419Z,74.07
2022-11-29T14:12:07.323Z,69.03
2022-11-29T14:14:53.798Z,55.97
2022-11-29T14:17:51.141Z,63.37
2022-11-29T14:20:57.330Z,50.22
2022-11-29T14:23:49.687Z,59.65
2022-11-29T14:26:36.767Z,46.00
2022-11-29T14:29:58.617Z,53.35
2022-11-29T14:32:45.915Z,62.13
2022-11-29T14:35:29.517Z,55.25
2022-11-29T14:38:14.182Z,60.70
2022-11-29T14:40:58.871Z,48.25
2022-11-29T14:43:37.097Z,53.08
2022-11-29T14:46:30.252Z,53.60
2022-11-29T14:49:04.481Z,51.77
2022-11-29T14:51:37.437Z,58.15
2022-11-29T14:54:20.231Z,58.40
2022-11-29T14:56:59.576Z,54.55
2022-11-29T14:59:51.839Z,67.15
2022-11-29T15:02:37.500Z,60.67
2022-11-29T15:05:20.800Z,53.37
2022-11-29T15:07:59.573Z,55.15
2022-11-29T15:10:36.544Z,63.73
2022-11-29T15:13:09.796Z,55.50
2022-11-29T15:16:09.199Z,53.50
2022-11-29T15:19:28.264Z,54.60
2022-11-29T15:22:11.014Z,49.03
2022-11-29T15:24:55.072Z,50.20
2022-11-29T15:27:26.837Z,48.50
2022-11-29T15:29:59.011Z,46.10
2022-11-29T15:32:34.808Z,51.40
2022-11-29T15:35:19.106Z,46.38
2022-11-29T15:37:51.149Z,44.97
2022-11-29T15:40:24.790Z,45.23
2022-11-29T15:43:18.566Z,46.53
2022-11-29T15:45:54.224Z,45.17
2022-11-29T15:48:29.525Z,48.67
2022-11-29T15:51:08.291Z,46.90
2022-11-29T15:53:47.191Z,50.57
2022-11-29T15:56:23.724Z,51.33
2022-11-29T15:59:01.235Z,51.93
2022-11-29T16:01:39.288Z,57.30
2022-11-29T16:04:18.531Z,54.30
2022-11-29T16:06:52.968Z,51.10
2022-11-29T16:09:37.358Z,58.23
2022-11-29T16:12:16.381Z,56.13
2022-11-29T16:14:58.949Z,57.97
2022-11-29T16:17:36.733Z,51.90
2022-11-29T16:20:27.950Z,58.13
2022-11-29T16:23:14.500Z,66.10
2022-11-29T16:26:05.054Z,58.23
2022-11-29T16:28:47.679Z,57.27
2022-11-29T16:31:22.596Z,53.90
2022-11-29T16:33:57.791Z,55.37
2022-11-29T16:36:30.726Z,54.30
2022-11-29T16:39:09.876Z,62.53
2022-11-29T16:41:41.812Z,80.10
2022-11-29T16:44:57.270Z,67.23
2022-11-29T16:47:30.167Z,64.70
2022-11-29T16:50:27.969Z,67.10
2022-11-29T16:52:59.636Z,80.93
2022-11-29T16:55:32.306Z,71.77
2022-11-29T16:58:02.425Z,73.03
2022-11-29T17:00:37.234Z,73.53
2022-11-29T17:03:09.830Z,65.27
2022-11-29T17:05:49.721Z,74.70
2022-11-29T17:08:19.959Z,71.33
2022-11-29T17:10:52.615Z,73.53
2022-11-29T17:13:25.028Z,84.00
2022-11-29T17:15:55.082Z,62.83
2022-11-29T17:18:25.190Z,63.83
2022-11-29T17:20:58.393Z,57.57
2022-11-29T17:23:28.568Z,62.07
2022-11-29T17:26:05.641Z,61.63
2022-11-29T17:28:35.732Z,65.23
2022-11-29T17:31:15.688Z,67.73
2022-11-29T17:33:49.181Z,72.57
2022-11-29T17:36:23.886Z,67.27
2022-11-29T17:38:56.242Z,62.43
2022-11-29T17:41:35.435Z,63.60
2022-11-29T17:44:06.139Z,57.97
2022-11-29T17:46:47.317Z,60.93
2022-11-29T17:49:18.696Z,53.07
2022-11-29T17:51:53.260Z,65.33
2022-11-29T17:54:24.395Z,56.80
2022-11-29T17:56:58.094Z,69.83
2022-11-29T17:59:31.126Z,64.37
2022-11-29T18:02:07.059Z,58.70
2022-11-29T18:04:37.472Z,57.80
2022-11-29T18:07:09.927Z,60.33
2022-11-29T18:09:43.281Z,54.77
2022-11-29T18:12:20.106Z,59.33
2022-11-29T18:14:50.804Z,58.60
2022-11-29T18:17:20.911Z,61.63
2022-11-29T18:19:51.007Z,62.00
2022-11-29T18:22:23.694Z,59.93
2022-11-29T18:25:05.380Z,66.53
2022-11-29T18:27:49.713Z,66.73
2022-11-29T18:30:20.309Z,58.70
2022-11-29T18:32:50.451Z,61.93
2022-11-29T18:35:20.603Z,62.30
2022-11-29T18:38:16.520Z,62.20
2022-11-29T18:40:48.209Z,57.53
2022-11-29T18:43:21.821Z,63.17
2022-11-29T18:45:51.952Z,64.77
2022-11-29T18:48:22.090Z,68.47
2022-11-29T18:50:52.192Z,58.17
2022-11-29T18:53:22.339Z,57.77
2022-11-29T18:56:03.647Z,62.83
2022-11-29T18:58:58.403Z,63.73
2022-11-29T19:01:31.396Z,63.20
2022-11-29T19:04:04.426Z,67.13
2022-11-29T19:06:39.936Z,57.20
2022-11-29T19:09:15.623Z,57.93
2022-11-29T19:11:55.859Z,57.67
2022-11-29T19:14:30.500Z,56.27
2022-11-29T19:17:03.632Z,53.03
2022-11-29T19:19:33.962Z,59.97
2022-11-29T19:22:04.055Z,54.57
2022-11-29T19:24:37.340Z,61.00
2022-11-29T19:27:07.473Z,64.33
2022-11-29T19:29:40.299Z,63.13
2022-11-29T19:32:10.461Z,61.33
2022-11-29T19:34:40.708Z,61.00
2022-11-29T19:37:13.707Z,57.53
2022-11-29T19:39:44.425Z,56.80
2022-11-29T19:42:14.772Z,57.10
2022-11-29T19:47:40.713Z,62.67
2022-11-29T19:50:12.267Z,63.03
2022-11-29T19:52:45.219Z,63.10
2022-11-29T19:55:15.329Z,61.93
2022-11-29T19:57:45.430Z,66.57
2022-11-29T20:00:20.635Z,60.27
2022-11-29T20:02:50.754Z,66.97
2022-11-29T20:05:21.256Z,66.00
2022-11-29T20:07:53.666Z,68.97
2022-11-29T20:10:23.767Z,81.13
2022-11-29T20:12:56.640Z,73.10
2022-11-29T20:15:31.602Z,64.93
2022-11-29T20:18:02.310Z,73.27
2022-11-29T20:20:36.472Z,72.00
2022-11-29T20:23:09.407Z,77.77
2022-11-29T20:25:42.549Z,67.70
2022-11-29T20:28:12.712Z,64.40
2022-11-29T20:30:52.660Z,57.97
2022-11-29T20:33:27.449Z,72.17
2022-11-29T20:36:20.420Z,62.17
2022-11-29T20:39:01.051Z,68.40
2022-11-29T20:41:42.798Z,62.47
2022-11-29T20:44:20.799Z,55.53
2022-11-29T20:46:56.592Z,53.67
2022-11-29T20:49:27.516Z,52.53
2022-11-29T20:52:08.289Z,58.47
2022-11-29T20:54:40.650Z,51.30
2022-11-29T20:57:11.908Z,54.90
2022-11-29T20:59:45.161Z,43.10
2022-11-29T21:02:18.090Z,53.80
2022-11-29T21:04:48.414Z,46.97
2022-11-29T21:07:18.790Z,51.73
2022-11-29T21:09:49.263Z,50.27
2022-11-29T21:12:23.692Z,46.63
2022-11-29T21:14:54.691Z,42.07
2022-11-29T21:17:33.408Z,42.47
2022-11-29T21:20:09.484Z,46.07
2022-11-29T21:22:50.714Z,43.80
2022-11-29T21:25:38.015Z,41.63
2022-11-29T21:28:16.893Z,40.43
2022-11-29T21:30:48.066Z,39.47
2022-11-29T21:33:24.688Z,42.53
2022-11-29T21:36:00.080Z,44.63
2022-11-29T21:38:31.898Z,41.37
2022-11-29T21:41:04.807Z,41.60
2022-11-29T21:44:04.915Z,44.93
2022-11-29T21:46:27.345Z,43.57
2022-11-29T21:49:02.204Z,42.20
2022-11-29T21:51:32.398Z,39.23
2022-11-29T21:54:11.058Z,40.27
2022-11-29T21:56:44.316Z,44.37
2022-11-29T21:59:14.432Z,40.37
2022-11-29T22:01:44.581Z,46.37
2022-11-29T22:04:17.343Z,51.57
2022-11-29T22:06:49.620Z,54.77
2022-11-29T22:09:19.732Z,52.47
2022-11-29T22:11:58.243Z,46.33
2022-11-29T22:14:28.315Z,49.57
2022-11-29T22:17:00.990Z,47.60
2022-11-29T22:19:36.262Z,44.00
2022-11-29T22:22:10.849Z,43.10
2022-11-29T22:24:41.125Z,39.67
2022-11-29T22:27:11.200Z,42.50
2022-11-29T22:29:41.282Z,43.13
2022-11-29T22:32:14.148Z,40.23
2022-11-29T22:34:47.025Z,48.93
2022-11-29T22:37:17.320Z,42.67
2022-11-29T22:39:53.155Z,48.40
2022-11-29T22:42:23.570Z,47.73
2022-11-29T22:44:53.609Z,41.27
2022-11-29T22:47:26.107Z,47.70
2022-11-29T22:49:58.767Z,43.00
2022-11-29T22:52:30.043Z,48.67
2022-11-29T22:55:04.831Z,49.53
2022-11-29T22:57:35.499Z,49.30
2022-11-29T23:00:11.555Z,42.47
2022-11-29T23:02:44.469Z,46.40
2022-11-29T23:05:17.230Z,52.73
2022-11-29T23:07:47.519Z,46.03
2022-11-29T23:10:18.145Z,49.37
2022-11-29T23:12:48.291Z,45.13
2022-11-29T23:15:18.533Z,49.20
2022-11-29T23:17:48.651Z,51.83
2022-11-29T23:20:21.543Z,46.13
2022-11-29T23:22:57.273Z,45.60
2022-11-29T23:25:27.358Z,49.53
2022-11-29T23:27:57.925Z,50.07
2022-11-29T23:30:28.024Z,44.80
2022-11-29T23:32:58.737Z,47.00
2022-11-29T23:35:38.985Z,46.87
2022-11-29T23:38:10.143Z,47.07
2022-11-29T23:40:40.228Z,41.60
2022-11-29T23:43:10.700Z,51.73
2022-11-29T23:45:42.244Z,51.03
2022-11-29T23:48:12.500Z,47.37
2022-11-29T23:50:46.145Z,51.17
2022-11-29T23:53:17.674Z,45.23
2022-11-29T23:55:47.945Z,48.93
2022-11-29T23:58:18.038Z,46.83
